sensor_id;sensor_type;location;lat;lon;timestamp;P1;durP1;ratioP1;P2;durP2;ratioP2
50161;SDS011;36061;48.116;11.612;2024-03-08T00:00:49;12.13;;;7.00;;
50161;SDS011;36061;48.116;11.612;2024-03-08T00:03:16;11.47;;;6.73;;
50161;SDS011;36061;48.116;11.612;2024-03-08T00:05:44;11.40;;;6.73;;
50161;SDS011;36061;48.116;11.612;2024-03-08T00:08:13;11.07;;;6.50;;
50161;SDS011;36061;48.116;11.612;2024-03-08T00:10:40;9.80;;;6.87;;
50161;SDS011;36061;48.116;11.612;2024-03-08T00:13:08;10.03;;;6.80;;
50161;SDS011;36061;48.116;11.612;2024-03-08T00:15:35;13.30;;;7.27;;
50161;SDS011;36061;48.116;11.612;2024-03-08T00:18:03;11.17;;;6.67;;
50161;SDS011;36061;48.116;11.612;2024-03-08T00:20:31;11.27;;;6.73;;
50161;SDS011;36061;48.116;11.612;2024-03-08T00:22:58;11.67;;;7.60;;
50161;SDS011;36061;48.116;11.612;2024-03-08T00:25:27;11.30;;;6.37;;
50161;SDS011;36061;48.116;11.612;2024-03-08T00:27:55;11.37;;;6.87;;
50161;SDS011;36061;48.116;11.612;2024-03-08T00:30:22;10.80;;;6.53;;
50161;SDS011;36061;48.116;11.612;2024-03-08T00:32:50;13.80;;;6.90;;
50161;SDS011;36061;48.116;11.612;2024-03-08T00:35:18;10.57;;;6.60;;
50161;SDS011;36061;48.116;11.612;2024-03-08T00:37:45;13.97;;;7.00;;
50161;SDS011;36061;48.116;11.612;2024-03-08T00:40:13;10.90;;;7.23;;
50161;SDS011;36061;48.116;11.612;2024-03-08T00:42:42;11.40;;;7.13;;
50161;SDS011;36061;48.116;11.612;2024-03-08T00:45:10;11.43;;;6.67;;
50161;SDS011;36061;48.116;11.612;2024-03-08T00:47:38;12.00;;;7.17;;
50161;SDS011;36061;48.116;11.612;2024-03-08T00:50:07;10.37;;;6.57;;
50161;SDS011;36061;48.116;11.612;2024-03-08T00:52:35;11.57;;;6.63;;
50161;SDS011;36061;48.116;11.612;2024-03-08T00:55:03;14.00;;;7.40;;
50161;SDS011;36061;48.116;11.612;2024-03-08T00:57:31;12.27;;;6.97;;
50161;SDS011;36061;48.116;11.612;2024-03-08T01:00:02;12.53;;;6.87;;
50161;SDS011;36061;48.116;11.612;2024-03-08T01:02:31;12.37;;;7.30;;
50161;SDS011;36061;48.116;11.612;2024-03-08T01:05:00;13.23;;;7.20;;
50161;SDS011;36061;48.116;11.612;2024-03-08T01:07:27;11.23;;;6.90;;
50161;SDS011;36061;48.116;11.612;2024-03-08T01:09:56;12.47;;;8.03;;
50161;SDS011;36061;48.116;11.612;2024-03-08T01:12:24;14.70;;;7.77;;
50161;SDS011;36061;48.116;11.612;2024-03-08T01:14:51;15.73;;;8.17;;
50161;SDS011;36061;48.116;11.612;2024-03-08T01:17:20;13.60;;;8.37;;
50161;SDS011;36061;48.116;11.612;2024-03-08T01:19:48;12.80;;;7.23;;
50161;SDS011;36061;48.116;11.612;2024-03-08T01:22:15;12.67;;;7.53;;
50161;SDS011;36061;48.116;11.612;2024-03-08T01:24:43;12.50;;;7.73;;
50161;SDS011;36061;48.116;11.612;2024-03-08T01:27:10;12.97;;;7.33;;
50161;SDS011;36061;48.116;11.612;2024-03-08T01:29:38;14.10;;;8.30;;
50161;SDS011;36061;48.116;11.612;2024-03-08T01:32:06;18.30;;;8.50;;
50161;SDS011;36061;48.116;11.612;2024-03-08T01:34:35;12.93;;;7.83;;
50161;SDS011;36061;48.116;11.612;2024-03-08T01:37:02;15.07;;;7.80;;
50161;SDS011;36061;48.116;11.612;2024-03-08T01:39:30;12.97;;;8.07;;
50161;SDS011;36061;48.116;11.612;2024-03-08T01:41:57;13.37;;;7.87;;
50161;SDS011;36061;48.116;11.612;2024-03-08T01:44:26;11.53;;;7.73;;
50161;SDS011;36061;48.116;11.612;2024-03-08T01:46:53;14.47;;;7.47;;
50161;SDS011;36061;48.116;11.612;2024-03-08T01:49:21;14.97;;;7.83;;
50161;SDS011;36061;48.116;11.612;2024-03-08T01:51:52;13.67;;;8.03;;
50161;SDS011;36061;48.116;11.612;2024-03-08T01:54:21;11.97;;;7.63;;
50161;SDS011;36061;48.116;11.612;2024-03-08T01:56:50;13.57;;;7.97;;
50161;SDS011;36061;48.116;11.612;2024-03-08T01:59:18;14.10;;;8.67;;
50161;SDS011;36061;48.116;11.612;2024-03-08T02:01:46;15.70;;;8.50;;
50161;SDS011;36061;48.116;11.612;2024-03-08T02:04:14;13.53;;;7.30;;
50161;SDS011;36061;48.116;11.612;2024-03-08T02:06:42;13.27;;;7.90;;
50161;SDS011;36061;48.116;11.612;2024-03-08T02:09:11;14.33;;;7.67;;
50161;SDS011;36061;48.116;11.612;2024-03-08T02:11:40;14.27;;;8.63;;
50161;SDS011;36061;48.116;11.612;2024-03-08T02:14:08;14.27;;;8.53;;
50161;SDS011;36061;48.116;11.612;2024-03-08T02:16:36;15.20;;;8.57;;
50161;SDS011;36061;48.116;11.612;2024-03-08T02:19:04;15.60;;;8.67;;
50161;SDS011;36061;48.116;11.612;2024-03-08T02:21:36;11.87;;;8.23;;
50161;SDS011;36061;48.116;11.612;2024-03-08T02:24:04;11.50;;;7.33;;
50161;SDS011;36061;48.116;11.612;2024-03-08T02:26:33;13.63;;;8.07;;
50161;SDS011;36061;48.116;11.612;2024-03-08T02:29:00;17.33;;;8.60;;
50161;SDS011;36061;48.116;11.612;2024-03-08T02:31:29;12.97;;;7.47;;
50161;SDS011;36061;48.116;11.612;2024-03-08T02:33:56;15.60;;;7.47;;
50161;SDS011;36061;48.116;11.612;2024-03-08T02:36:25;12.77;;;7.97;;
50161;SDS011;36061;48.116;11.612;2024-03-08T02:38:53;12.07;;;8.10;;
50161;SDS011;36061;48.116;11.612;2024-03-08T02:41:21;14.90;;;7.73;;
50161;SDS011;36061;48.116;11.612;2024-03-08T02:43:49;15.33;;;8.13;;
50161;SDS011;36061;48.116;11.612;2024-03-08T02:46:16;12.73;;;8.20;;
50161;SDS011;36061;48.116;11.612;2024-03-08T02:48:44;12.77;;;7.93;;
50161;SDS011;36061;48.116;11.612;2024-03-08T02:51:12;13.37;;;8.07;;
50161;SDS011;36061;48.116;11.612;2024-03-08T02:53:41;13.33;;;7.80;;
50161;SDS011;36061;48.116;11.612;2024-03-08T02:56:11;18.20;;;8.23;;
50161;SDS011;36061;48.116;11.612;2024-03-08T02:58:42;19.47;;;9.30;;
50161;SDS011;36061;48.116;11.612;2024-03-08T03:01:14;13.40;;;7.27;;
50161;SDS011;36061;48.116;11.612;2024-03-08T03:03:41;12.90;;;7.40;;
50161;SDS011;36061;48.116;11.612;2024-03-08T03:06:09;12.07;;;7.60;;
50161;SDS011;36061;48.116;11.612;2024-03-08T03:08:37;14.50;;;8.00;;
50161;SDS011;36061;48.116;11.612;2024-03-08T03:11:11;15.20;;;8.60;;
50161;SDS011;36061;48.116;11.612;2024-03-08T03:13:39;16.93;;;8.27;;
50161;SDS011;36061;48.116;11.612;2024-03-08T03:16:08;16.57;;;8.63;;
50161;SDS011;36061;48.116;11.612;2024-03-08T03:18:35;14.17;;;8.57;;
50161;SDS011;36061;48.116;11.612;2024-03-08T03:21:03;14.17;;;8.27;;
50161;SDS011;36061;48.116;11.612;2024-03-08T03:23:33;16.50;;;7.73;;
50161;SDS011;36061;48.116;11.612;2024-03-08T03:26:02;14.80;;;8.80;;
50161;SDS011;36061;48.116;11.612;2024-03-08T03:28:34;15.17;;;8.10;;
50161;SDS011;36061;48.116;11.612;2024-03-08T03:31:05;15.80;;;8.40;;
50161;SDS011;36061;48.116;11.612;2024-03-08T03:33:33;12.67;;;7.53;;
50161;SDS011;36061;48.116;11.612;2024-03-08T03:36:02;17.53;;;8.23;;
50161;SDS011;36061;48.116;11.612;2024-03-08T03:38:30;14.17;;;8.07;;
50161;SDS011;36061;48.116;11.612;2024-03-08T03:40:59;20.40;;;9.57;;
50161;SDS011;36061;48.116;11.612;2024-03-08T03:43:37;16.23;;;8.37;;
50161;SDS011;36061;48.116;11.612;2024-03-08T03:46:05;13.60;;;8.07;;
50161;SDS011;36061;48.116;11.612;2024-03-08T03:48:36;17.23;;;9.37;;
50161;SDS011;36061;48.116;11.612;2024-03-08T03:51:03;14.00;;;7.93;;
50161;SDS011;36061;48.116;11.612;2024-03-08T03:53:31;19.13;;;9.80;;
50161;SDS011;36061;48.116;11.612;2024-03-08T03:55:58;17.10;;;8.87;;
50161;SDS011;36061;48.116;11.612;2024-03-08T03:58:26;14.70;;;9.57;;
50161;SDS011;36061;48.116;11.612;2024-03-08T04:00:54;17.17;;;9.77;;
50161;SDS011;36061;48.116;11.612;2024-03-08T04:03:22;14.63;;;8.60;;
50161;SDS011;36061;48.116;11.612;2024-03-08T04:05:49;15.03;;;9.80;;
50161;SDS011;36061;48.116;11.612;2024-03-08T04:08:17;18.33;;;10.33;;
50161;SDS011;36061;48.116;11.612;2024-03-08T04:10:45;16.33;;;8.73;;
50161;SDS011;36061;48.116;11.612;2024-03-08T04:13:13;16.70;;;9.00;;
50161;SDS011;36061;48.116;11.612;2024-03-08T04:15:41;14.97;;;9.57;;
50161;SDS011;36061;48.116;11.612;2024-03-08T04:18:11;19.77;;;9.30;;
50161;SDS011;36061;48.116;11.612;2024-03-08T04:20:39;14.00;;;8.23;;
50161;SDS011;36061;48.116;11.612;2024-03-08T04:23:06;18.70;;;9.73;;
50161;SDS011;36061;48.116;11.612;2024-03-08T04:25:34;15.77;;;9.47;;
50161;SDS011;36061;48.116;11.612;2024-03-08T04:28:02;15.60;;;9.13;;
50161;SDS011;36061;48.116;11.612;2024-03-08T04:30:29;17.40;;;9.77;;
50161;SDS011;36061;48.116;11.612;2024-03-08T04:32:57;18.30;;;9.13;;
50161;SDS011;36061;48.116;11.612;2024-03-08T04:35:26;14.93;;;9.00;;
50161;SDS011;36061;48.116;11.612;2024-03-08T04:37:54;15.33;;;9.23;;
50161;SDS011;36061;48.116;11.612;2024-03-08T04:40:23;18.47;;;9.40;;
50161;SDS011;36061;48.116;11.612;2024-03-08T04:42:50;17.30;;;11.07;;
50161;SDS011;36061;48.116;11.612;2024-03-08T04:45:18;14.23;;;8.27;;
50161;SDS011;36061;48.116;11.612;2024-03-08T04:47:47;14.33;;;9.30;;
50161;SDS011;36061;48.116;11.612;2024-03-08T04:50:14;17.47;;;9.37;;
50161;SDS011;36061;48.116;11.612;2024-03-08T04:52:43;16.30;;;9.47;;
50161;SDS011;36061;48.116;11.612;2024-03-08T04:55:11;16.50;;;9.50;;
50161;SDS011;36061;48.116;11.612;2024-03-08T04:57:39;19.10;;;10.93;;
50161;SDS011;36061;48.116;11.612;2024-03-08T05:00:07;17.03;;;10.17;;
50161;SDS011;36061;48.116;11.612;2024-03-08T05:02:37;17.67;;;9.57;;
50161;SDS011;36061;48.116;11.612;2024-03-08T05:05:05;20.43;;;10.70;;
50161;SDS011;36061;48.116;11.612;2024-03-08T05:07:33;18.10;;;9.37;;
50161;SDS011;36061;48.116;11.612;2024-03-08T05:10:02;15.23;;;10.03;;
50161;SDS011;36061;48.116;11.612;2024-03-08T05:12:30;17.93;;;10.93;;
50161;SDS011;36061;48.116;11.612;2024-03-08T05:14:57;19.20;;;10.70;;
50161;SDS011;36061;48.116;11.612;2024-03-08T05:17:25;19.07;;;10.37;;
50161;SDS011;36061;48.116;11.612;2024-03-08T05:19:53;18.87;;;10.83;;
50161;SDS011;36061;48.116;11.612;2024-03-08T05:22:20;16.37;;;8.97;;
50161;SDS011;36061;48.116;11.612;2024-03-08T05:24:48;16.37;;;9.13;;
50161;SDS011;36061;48.116;11.612;2024-03-08T05:27:17;19.50;;;9.73;;
50161;SDS011;36061;48.116;11.612;2024-03-08T05:29:44;19.53;;;10.73;;
50161;SDS011;36061;48.116;11.612;2024-03-08T05:32:12;15.00;;;9.87;;
50161;SDS011;36061;48.116;11.612;2024-03-08T05:34:40;17.60;;;10.33;;
50161;SDS011;36061;48.116;11.612;2024-03-08T05:37:08;19.97;;;10.90;;
50161;SDS011;36061;48.116;11.612;2024-03-08T05:39:36;14.83;;;9.63;;
50161;SDS011;36061;48.116;11.612;2024-03-08T05:42:04;20.40;;;10.47;;
50161;SDS011;36061;48.116;11.612;2024-03-08T05:44:35;15.63;;;9.40;;
50161;SDS011;36061;48.116;11.612;2024-03-08T05:47:03;17.27;;;10.37;;
50161;SDS011;36061;48.116;11.612;2024-03-08T05:49:32;19.40;;;10.60;;
50161;SDS011;36061;48.116;11.612;2024-03-08T05:52:00;19.93;;;9.87;;
50161;SDS011;36061;48.116;11.612;2024-03-08T05:54:27;19.17;;;9.40;;
50161;SDS011;36061;48.116;11.612;2024-03-08T05:56:55;16.40;;;8.83;;
50161;SDS011;36061;48.116;11.612;2024-03-08T05:59:23;17.87;;;9.77;;
50161;SDS011;36061;48.116;11.612;2024-03-08T06:01:51;15.67;;;10.23;;
50161;SDS011;36061;48.116;11.612;2024-03-08T06:04:19;17.90;;;9.93;;
50161;SDS011;36061;48.116;11.612;2024-03-08T06:06:47;20.80;;;10.13;;
50161;SDS011;36061;48.116;11.612;2024-03-08T06:09:17;22.07;;;9.40;;
50161;SDS011;36061;48.116;11.612;2024-03-08T06:11:48;18.37;;;10.23;;
50161;SDS011;36061;48.116;11.612;2024-03-08T06:14:16;27.50;;;11.53;;
50161;SDS011;36061;48.116;11.612;2024-03-08T06:16:44;22.90;;;11.20;;
50161;SDS011;36061;48.116;11.612;2024-03-08T06:19:13;18.20;;;9.47;;
50161;SDS011;36061;48.116;11.612;2024-03-08T06:21:41;17.03;;;9.77;;
50161;SDS011;36061;48.116;11.612;2024-03-08T06:24:08;17.10;;;8.73;;
50161;SDS011;36061;48.116;11.612;2024-03-08T06:26:36;17.10;;;9.47;;
50161;SDS011;36061;48.116;11.612;2024-03-08T06:29:04;18.63;;;9.77;;
50161;SDS011;36061;48.116;11.612;2024-03-08T06:31:32;16.40;;;8.93;;
50161;SDS011;36061;48.116;11.612;2024-03-08T06:34:00;16.03;;;8.90;;
50161;SDS011;36061;48.116;11.612;2024-03-08T06:36:29;16.77;;;9.23;;
50161;SDS011;36061;48.116;11.612;2024-03-08T06:38:56;15.87;;;8.73;;
50161;SDS011;36061;48.116;11.612;2024-03-08T06:41:24;15.23;;;9.00;;
50161;SDS011;36061;48.116;11.612;2024-03-08T06:43:52;17.63;;;9.93;;
50161;SDS011;36061;48.116;11.612;2024-03-08T06:46:23;19.27;;;9.43;;
50161;SDS011;36061;48.116;11.612;2024-03-08T06:48:50;14.37;;;9.00;;
50161;SDS011;36061;48.116;11.612;2024-03-08T06:51:18;17.23;;;9.33;;
50161;SDS011;36061;48.116;11.612;2024-03-08T06:53:47;17.13;;;9.33;;
50161;SDS011;36061;48.116;11.612;2024-03-08T06:56:15;17.20;;;8.63;;
50161;SDS011;36061;48.116;11.612;2024-03-08T06:58:43;14.90;;;8.30;;
50161;SDS011;36061;48.116;11.612;2024-03-08T07:01:10;16.20;;;9.00;;
50161;SDS011;36061;48.116;11.612;2024-03-08T07:03:41;18.20;;;10.40;;
50161;SDS011;36061;48.116;11.612;2024-03-08T07:06:10;17.10;;;10.53;;
50161;SDS011;36061;48.116;11.612;2024-03-08T07:08:37;14.73;;;8.80;;
50161;SDS011;36061;48.116;11.612;2024-03-08T07:11:06;16.13;;;8.90;;
50161;SDS011;36061;48.116;11.612;2024-03-08T07:13:34;14.30;;;8.43;;
50161;SDS011;36061;48.116;11.612;2024-03-08T07:16:01;16.43;;;8.53;;
50161;SDS011;36061;48.116;11.612;2024-03-08T07:18:29;16.03;;;9.20;;
50161;SDS011;36061;48.116;11.612;2024-03-08T07:20:57;17.90;;;9.57;;
50161;SDS011;36061;48.116;11.612;2024-03-08T07:23:24;19.60;;;9.47;;
50161;SDS011;36061;48.116;11.612;2024-03-08T07:26:10;22.00;;;9.33;;
50161;SDS011;36061;48.116;11.612;2024-03-08T07:28:41;16.47;;;8.53;;
50161;SDS011;36061;48.116;11.612;2024-03-08T07:31:09;20.47;;;10.33;;
50161;SDS011;36061;48.116;11.612;2024-03-08T07:33:46;16.43;;;9.37;;
50161;SDS011;36061;48.116;11.612;2024-03-08T07:36:16;15.63;;;9.23;;
50161;SDS011;36061;48.116;11.612;2024-03-08T07:38:43;15.23;;;8.93;;
50161;SDS011;36061;48.116;11.612;2024-03-08T07:41:14;15.33;;;8.97;;
50161;SDS011;36061;48.116;11.612;2024-03-08T07:43:42;17.23;;;9.23;;
50161;SDS011;36061;48.116;11.612;2024-03-08T07:46:09;15.17;;;8.53;;
50161;SDS011;36061;48.116;11.612;2024-03-08T07:48:38;16.63;;;9.40;;
50161;SDS011;36061;48.116;11.612;2024-03-08T07:51:07;17.20;;;8.93;;
50161;SDS011;36061;48.116;11.612;2024-03-08T07:53:35;16.83;;;9.17;;
50161;SDS011;36061;48.116;11.612;2024-03-08T07:56:03;19.73;;;10.03;;
50161;SDS011;36061;48.116;11.612;2024-03-08T07:58:33;14.87;;;9.43;;
50161;SDS011;36061;48.116;11.612;2024-03-08T08:01:00;16.77;;;8.83;;
50161;SDS011;36061;48.116;11.612;2024-03-08T08:03:28;16.17;;;9.43;;
50161;SDS011;36061;48.116;11.612;2024-03-08T08:05:56;16.77;;;9.80;;
50161;SDS011;36061;48.116;11.612;2024-03-08T08:08:24;17.73;;;9.97;;
50161;SDS011;36061;48.116;11.612;2024-03-08T08:10:52;16.87;;;9.23;;
50161;SDS011;36061;48.116;11.612;2024-03-08T08:13:19;17.27;;;9.63;;
50161;SDS011;36061;48.116;11.612;2024-03-08T08:15:49;17.47;;;9.30;;
50161;SDS011;36061;48.116;11.612;2024-03-08T08:18:17;16.70;;;8.30;;
50161;SDS011;36061;48.116;11.612;2024-03-08T08:20:47;17.60;;;9.73;;
50161;SDS011;36061;48.116;11.612;2024-03-08T08:23:15;18.20;;;9.67;;
50161;SDS011;36061;48.116;11.612;2024-03-08T08:25:42;17.50;;;9.17;;
50161;SDS011;36061;48.116;11.612;2024-03-08T08:28:10;18.80;;;9.97;;
50161;SDS011;36061;48.116;11.612;2024-03-08T08:30:38;18.50;;;10.00;;
50161;SDS011;36061;48.116;11.612;2024-03-08T08:33:07;17.83;;;8.50;;
50161;SDS011;36061;48.116;11.612;2024-03-08T08:35:34;15.23;;;8.77;;
50161;SDS011;36061;48.116;11.612;2024-03-08T08:38:02;13.60;;;8.17;;
50161;SDS011;36061;48.116;11.612;2024-03-08T08:40:30;15.07;;;7.60;;
50161;SDS011;36061;48.116;11.612;2024-03-08T08:42:58;15.97;;;9.27;;
50161;SDS011;36061;48.116;11.612;2024-03-08T08:45:26;17.43;;;9.57;;
50161;SDS011;36061;48.116;11.612;2024-03-08T08:47:53;14.07;;;8.47;;
50161;SDS011;36061;48.116;11.612;2024-03-08T08:50:22;15.87;;;9.17;;
50161;SDS011;36061;48.116;11.612;2024-03-08T08:52:51;15.80;;;9.63;;
50161;SDS011;36061;48.116;11.612;2024-03-08T08:55:18;15.20;;;9.33;;
50161;SDS011;36061;48.116;11.612;2024-03-08T08:57:50;15.57;;;8.47;;
50161;SDS011;36061;48.116;11.612;2024-03-08T09:00:18;14.53;;;8.70;;
50161;SDS011;36061;48.116;11.612;2024-03-08T09:02:47;17.67;;;8.80;;
50161;SDS011;36061;48.116;11.612;2024-03-08T09:05:16;16.33;;;9.27;;
50161;SDS011;36061;48.116;11.612;2024-03-08T09:07:45;15.80;;;8.47;;
50161;SDS011;36061;48.116;11.612;2024-03-08T09:10:12;15.13;;;8.50;;
50161;SDS011;36061;48.116;11.612;2024-03-08T09:12:40;13.57;;;8.27;;
50161;SDS011;36061;48.116;11.612;2024-03-08T09:15:08;16.60;;;8.90;;
50161;SDS011;36061;48.116;11.612;2024-03-08T09:17:36;19.17;;;9.77;;
50161;SDS011;36061;48.116;11.612;2024-03-08T09:20:06;16.17;;;8.77;;
50161;SDS011;36061;48.116;11.612;2024-03-08T09:22:34;13.50;;;8.17;;
50161;SDS011;36061;48.116;11.612;2024-03-08T09:25:04;14.77;;;8.73;;
50161;SDS011;36061;48.116;11.612;2024-03-08T09:27:33;16.03;;;8.20;;
50161;SDS011;36061;48.116;11.612;2024-03-08T09:30:01;16.13;;;9.20;;
50161;SDS011;36061;48.116;11.612;2024-03-08T09:32:29;18.67;;;9.53;;
50161;SDS011;36061;48.116;11.612;2024-03-08T09:34:57;20.43;;;9.60;;
50161;SDS011;36061;48.116;11.612;2024-03-08T09:37:26;19.57;;;10.00;;
50161;SDS011;36061;48.116;11.612;2024-03-08T09:39:54;14.77;;;8.77;;
50161;SDS011;36061;48.116;11.612;2024-03-08T09:42:22;15.00;;;9.10;;
50161;SDS011;36061;48.116;11.612;2024-03-08T09:44:50;16.63;;;9.07;;
50161;SDS011;36061;48.116;11.612;2024-03-08T09:47:19;16.33;;;8.93;;
50161;SDS011;36061;48.116;11.612;2024-03-08T09:49:54;14.87;;;8.30;;
50161;SDS011;36061;48.116;11.612;2024-03-08T09:52:22;15.80;;;8.50;;
50161;SDS011;36061;48.116;11.612;2024-03-08T09:54:50;17.67;;;8.33;;
50161;SDS011;36061;48.116;11.612;2024-03-08T09:57:17;20.80;;;9.23;;
50161;SDS011;36061;48.116;11.612;2024-03-08T09:59:47;20.90;;;9.90;;
50161;SDS011;36061;48.116;11.612;2024-03-08T10:02:16;17.93;;;9.30;;
50161;SDS011;36061;48.116;11.612;2024-03-08T10:04:44;18.20;;;9.40;;
50161;SDS011;36061;48.116;11.612;2024-03-08T10:07:14;18.77;;;9.53;;
50161;SDS011;36061;48.116;11.612;2024-03-08T10:09:41;20.97;;;9.70;;
50161;SDS011;36061;48.116;11.612;2024-03-08T10:12:15;17.17;;;9.33;;
50161;SDS011;36061;48.116;11.612;2024-03-08T10:14:43;19.70;;;9.73;;
50161;SDS011;36061;48.116;11.612;2024-03-08T10:17:12;16.90;;;9.40;;
50161;SDS011;36061;48.116;11.612;2024-03-08T10:19:39;17.53;;;9.17;;
50161;SDS011;36061;48.116;11.612;2024-03-08T10:22:17;14.47;;;7.70;;
50161;SDS011;36061;48.116;11.612;2024-03-08T10:24:45;14.60;;;8.03;;
50161;SDS011;36061;48.116;11.612;2024-03-08T10:27:13;16.40;;;8.70;;
50161;SDS011;36061;48.116;11.612;2024-03-08T10:29:43;15.97;;;9.20;;
50161;SDS011;36061;48.116;11.612;2024-03-08T10:32:15;14.93;;;8.67;;
50161;SDS011;36061;48.116;11.612;2024-03-08T10:34:43;16.20;;;8.60;;
50161;SDS011;36061;48.116;11.612;2024-03-08T10:37:12;17.43;;;8.57;;
50161;SDS011;36061;48.116;11.612;2024-03-08T10:39:42;16.63;;;8.17;;
50161;SDS011;36061;48.116;11.612;2024-03-08T10:42:21;13.83;;;7.63;;
50161;SDS011;36061;48.116;11.612;2024-03-08T10:44:57;13.77;;;7.67;;
50161;SDS011;36061;48.116;11.612;2024-03-08T10:47:35;10.57;;;6.50;;
50161;SDS011;36061;48.116;11.612;2024-03-08T10:50:10;15.43;;;8.67;;
50161;SDS011;36061;48.116;11.612;2024-03-08T10:52:43;14.70;;;7.53;;
50161;SDS011;36061;48.116;11.612;2024-03-08T10:55:14;13.20;;;7.70;;
50161;SDS011;36061;48.116;11.612;2024-03-08T10:57:42;14.07;;;8.33;;
50161;SDS011;36061;48.116;11.612;2024-03-08T11:00:10;14.33;;;7.67;;
50161;SDS011;36061;48.116;11.612;2024-03-08T11:02:44;13.67;;;8.93;;
50161;SDS011;36061;48.116;11.612;2024-03-08T11:05:16;15.93;;;8.13;;
50161;SDS011;36061;48.116;11.612;2024-03-08T11:08:00;14.97;;;8.07;;
50161;SDS011;36061;48.116;11.612;2024-03-08T11:10:29;14.77;;;7.50;;
50161;SDS011;36061;48.116;11.612;2024-03-08T11:12:58;15.33;;;8.73;;
50161;SDS011;36061;48.116;11.612;2024-03-08T11:15:27;13.10;;;7.93;;
50161;SDS011;36061;48.116;11.612;2024-03-08T11:17:59;14.13;;;8.00;;
50161;SDS011;36061;48.116;11.612;2024-03-08T11:20:28;13.10;;;7.17;;
50161;SDS011;36061;48.116;11.612;2024-03-08T11:22:59;17.40;;;8.10;;
50161;SDS011;36061;48.116;11.612;2024-03-08T11:25:31;11.93;;;7.77;;
50161;SDS011;36061;48.116;11.612;2024-03-08T11:28:11;16.33;;;7.77;;
50161;SDS011;36061;48.116;11.612;2024-03-08T11:30:43;14.43;;;7.80;;
50161;SDS011;36061;48.116;11.612;2024-03-08T11:33:14;16.30;;;8.10;;
50161;SDS011;36061;48.116;11.612;2024-03-08T11:35:44;13.37;;;8.40;;
50161;SDS011;36061;48.116;11.612;2024-03-08T11:38:12;14.97;;;7.87;;
50161;SDS011;36061;48.116;11.612;2024-03-08T11:40:42;14.13;;;7.37;;
50161;SDS011;36061;48.116;11.612;2024-03-08T11:43:15;15.20;;;8.37;;
50161;SDS011;36061;48.116;11.612;2024-03-08T11:45:43;17.23;;;9.10;;
50161;SDS011;36061;48.116;11.612;2024-03-08T11:48:11;13.97;;;8.00;;
50161;SDS011;36061;48.116;11.612;2024-03-08T11:50:40;12.47;;;7.80;;
50161;SDS011;36061;48.116;11.612;2024-03-08T11:53:08;14.47;;;8.10;;
50161;SDS011;36061;48.116;11.612;2024-03-08T11:55:37;16.00;;;7.80;;
50161;SDS011;36061;48.116;11.612;2024-03-08T11:58:07;14.50;;;7.67;;
50161;SDS011;36061;48.116;11.612;2024-03-08T12:00:36;15.43;;;9.17;;
50161;SDS011;36061;48.116;11.612;2024-03-08T12:03:05;12.53;;;7.47;;
50161;SDS011;36061;48.116;11.612;2024-03-08T12:05:35;14.03;;;7.73;;
50161;SDS011;36061;48.116;11.612;2024-03-08T12:08:05;15.07;;;8.53;;
50161;SDS011;36061;48.116;11.612;2024-03-08T12:10:34;14.30;;;8.27;;
50161;SDS011;36061;48.116;11.612;2024-03-08T12:13:03;15.37;;;8.70;;
50161;SDS011;36061;48.116;11.612;2024-03-08T12:15:39;14.27;;;8.17;;
50161;SDS011;36061;48.116;11.612;2024-03-08T12:18:07;18.53;;;9.10;;
50161;SDS011;36061;48.116;11.612;2024-03-08T12:20:36;13.90;;;7.40;;
50161;SDS011;36061;48.116;11.612;2024-03-08T12:23:06;15.03;;;8.07;;
50161;SDS011;36061;48.116;11.612;2024-03-08T12:25:40;13.50;;;8.27;;
50161;SDS011;36061;48.116;11.612;2024-03-08T12:28:08;14.10;;;8.87;;
50161;SDS011;36061;48.116;11.612;2024-03-08T12:30:44;14.60;;;8.27;;
50161;SDS011;36061;48.116;11.612;2024-03-08T12:33:13;12.97;;;7.67;;
50161;SDS011;36061;48.116;11.612;2024-03-08T12:35:49;12.43;;;7.30;;
50161;SDS011;36061;48.116;11.612;2024-03-08T12:38:21;21.13;;;8.50;;
50161;SDS011;36061;48.116;11.612;2024-03-08T12:40:50;16.53;;;8.10;;
50161;SDS011;36061;48.116;11.612;2024-03-08T12:43:22;9.77;;;7.40;;
50161;SDS011;36061;48.116;11.612;2024-03-08T12:45:49;14.80;;;8.23;;
50161;SDS011;36061;48.116;11.612;2024-03-08T12:48:18;14.27;;;7.77;;
50161;SDS011;36061;48.116;11.612;2024-03-08T12:50:46;16.17;;;8.17;;
50161;SDS011;36061;48.116;11.612;2024-03-08T12:53:16;13.73;;;8.10;;
50161;SDS011;36061;48.116;11.612;2024-03-08T12:55:45;13.77;;;7.90;;
50161;SDS011;36061;48.116;11.612;2024-03-08T12:58:12;11.93;;;7.30;;
50161;SDS011;36061;48.116;11.612;2024-03-08T13:00:42;12.67;;;7.60;;
50161;SDS011;36061;48.116;11.612;2024-03-08T13:03:09;12.60;;;7.13;;
50161;SDS011;36061;48.116;11.612;2024-03-08T13:05:37;12.57;;;7.30;;
50161;SDS011;36061;48.116;11.612;2024-03-08T13:08:05;16.27;;;8.33;;
50161;SDS011;36061;48.116;11.612;2024-03-08T13:10:37;14.67;;;8.03;;
50161;SDS011;36061;48.116;11.612;2024-03-08T13:13:07;11.23;;;7.10;;
50161;SDS011;36061;48.116;11.612;2024-03-08T13:15:35;12.47;;;7.33;;
50161;SDS011;36061;48.116;11.612;2024-03-08T13:18:02;13.43;;;7.53;;
50161;SDS011;36061;48.116;11.612;2024-03-08T13:20:31;13.83;;;7.00;;
50161;SDS011;36061;48.116;11.612;2024-03-08T13:22:58;10.13;;;7.33;;
50161;SDS011;36061;48.116;11.612;2024-03-08T13:25:27;10.87;;;6.57;;
50161;SDS011;36061;48.116;11.612;2024-03-08T13:27:54;12.13;;;7.20;;
50161;SDS011;36061;48.116;11.612;2024-03-08T13:30:26;14.07;;;7.53;;
50161;SDS011;36061;48.116;11.612;2024-03-08T13:32:53;11.20;;;6.93;;
50161;SDS011;36061;48.116;11.612;2024-03-08T13:35:21;11.40;;;6.90;;
50161;SDS011;36061;48.116;11.612;2024-03-08T13:37:52;12.70;;;7.40;;
50161;SDS011;36061;48.116;11.612;2024-03-08T13:40:20;12.53;;;7.40;;
50161;SDS011;36061;48.116;11.612;2024-03-08T13:42:48;12.03;;;7.27;;
50161;SDS011;36061;48.116;11.612;2024-03-08T13:45:16;16.00;;;8.47;;
50161;SDS011;36061;48.116;11.612;2024-03-08T13:47:50;12.47;;;7.67;;
50161;SDS011;36061;48.116;11.612;2024-03-08T13:50:20;13.40;;;7.77;;
50161;SDS011;36061;48.116;11.612;2024-03-08T13:52:47;12.80;;;7.73;;
50161;SDS011;36061;48.116;11.612;2024-03-08T13:55:16;10.57;;;6.80;;
50161;SDS011;36061;48.116;11.612;2024-03-08T13:57:44;14.50;;;8.10;;
50161;SDS011;36061;48.116;11.612;2024-03-08T14:00:12;14.53;;;8.23;;
50161;SDS011;36061;48.116;11.612;2024-03-08T14:02:41;13.37;;;8.30;;
50161;SDS011;36061;48.116;11.612;2024-03-08T14:05:10;12.73;;;7.57;;
50161;SDS011;36061;48.116;11.612;2024-03-08T14:07:39;16.60;;;8.20;;
50161;SDS011;36061;48.116;11.612;2024-03-08T14:10:07;12.33;;;7.83;;
50161;SDS011;36061;48.116;11.612;2024-03-08T14:12:35;14.03;;;8.17;;
50161;SDS011;36061;48.116;11.612;2024-03-08T14:15:04;12.53;;;7.93;;
50161;SDS011;36061;48.116;11.612;2024-03-08T14:17:32;13.87;;;8.73;;
50161;SDS011;36061;48.116;11.612;2024-03-08T14:19:59;15.33;;;8.37;;
50161;SDS011;36061;48.116;11.612;2024-03-08T14:22:28;18.03;;;8.20;;
50161;SDS011;36061;48.116;11.612;2024-03-08T14:24:57;14.27;;;8.20;;
50161;SDS011;36061;48.116;11.612;2024-03-08T14:27:24;14.23;;;8.60;;
50161;SDS011;36061;48.116;11.612;2024-03-08T14:29:52;16.03;;;8.10;;